Nearby METAR Reports

 

EGTE - Exeter Airport, United Kingdom
Distance from station: S 19km
Updated: 29/09/2021 02:20
Few Clouds
Few Clouds
 Wind from S
Wind: S 4 km/h
Temperature: 7°C
Dew Point: 6°C
Humidity: 93%
Barometer: 1015 hPa
Clouds: Few Clouds
Visibility: 10 km
Cloud details: Few Clouds 610 m
2021/09/29 01:20 EGTE 290120Z 19002KT 9999 FEW020 07/06 Q1015
EGDY - Yeovilton (navy), United Kingdom
Distance from station: ENE 55km
Updated: 29/09/2021 01:50
Mostly cloudy
Mostly cloudy
 Wind from WNW
Wind: WNW 13 km/h
Temperature: 10°C
Wind Chill: 8°C
Dew Point: 10°C
Humidity: 100%
Barometer: 1014 hPa
Clouds: Mostly cloudy
Visibility: 10 km
Cloud details: Partly cloudy 1128 m
Mostly cloudy 1463 m
2021/09/29 00:50 EGDY 290050Z AUTO 30007KT 9999 SCT037/// BKN048/// 10/10 Q1014 REDZ
 
EGFF - Cardiff-Wales Ar, United Kingdom
Distance from station: N 56km
Updated: 29/09/2021 02:50
Thunderstorm
Thunderstorm
 Wind from NW
Wind: NW 19 km/h
Temperature: 8°C
Wind Chill: 4°C
Dew Point: 7°C
Humidity: 93%
Barometer: 1014 hPa
Clouds: Thunderstorm
Visibility: 10 km
2021/09/29 01:50 EGFF 290150Z AUTO 32010KT 9999 //////CB 08/07 Q1014
EGDX - St Athan Raf, United Kingdom
Distance from station: N 58km
Updated: 01/04/2019 13:50
NOT Current
Clear
Clear
 Wind from E
Wind: E 15 km/h
Temperature: 11°C
Dew Point: 5°C
Humidity: 67%
Barometer: 1019 hPa
Clouds: Clear
Visibility: 10 km
2019/04/01 12:50 EGDX 011250Z AUTO 10008KT 9999 NCD 11/05 Q1019
 
EGGD - Bristol/Lulsgate, United Kingdom
Distance from station: NE 71km
Updated: 29/09/2021 02:50
Thunderstorm
Thunderstorm
 Wind from W
Wind: W 17 km/h
Temperature: 8°C
Wind Chill: 5°C
Dew Point: 6°C
Humidity: 87%
Barometer: 1014 hPa
Clouds: Thunderstorm
Visibility: 10 km
2021/09/29 01:50 EGGD 290150Z AUTO 27009KT 9999 //////CB 08/06 Q1014